Pagrindinis puslapis
METAR-TAF:

METAR-TAF

Oro uostai :

Emmen, Šveicarija

platuma: 47-05-32N, ilguma: 8-18-16E, Aukštis: 426 m

Dabartinis oras

Ataskaita buvo paskelbta 28 minutes, ne 18:20 UTC
Vėjas 11 kt iš Šiaurės/Šiaurės Rytų
Temperatūra 17°C
Drėgmė 45%
Slėgis 1018 hPa
Matomumas 10 km arba daugiau

METAR: LSME 301820Z AUTO 03011KT 9999NDV NCD 17/05 Q1018 RMK

Laikas: 20:48 (18:48 UTC)


TAF: trūkstamas

Orai ataskaitas ir orų prognozės (METAR, TAF).

turimą stotys yra geltonos ir raudonos taškus žemėlapyje.

Perkelti pele per norėdami pamatyti stoties vardą.

Tada spustelėkite, norėdami matyti oro stebėjimo ir prognozės.

Norėdami pakeisti žemėlapį: spustelėkite ant žalios mygtukų su juodo kryžiaus žemyn,; žalią mygtuką su brūkšneliu, jei norite nutolinti; arba žalių rodyklių gretimoms žemėlapius.


METAR-TAF: